KAMN/AMN METAR and TAF weather

Enter ICAO airport designator
Station Type Date Time Source
KAMN METAR 2021/04/18 02:36 UTC NOAA

KAMN 180236Z AUTO 29011KT 10SM SCT065 SCT070 OVC085 09/03 A2990 RMK AO2 T00890032


Station Type Date Time Source
KAMN Decoded METAR 2021/04/18 02:36 UTC NOAA

Alma, Gratiot Community Airport, MI, United States (KAMN) 43-19-19N 084-41-16W
Apr 17, 2021 - 10:36 PM EDT / 2021.04.18 0236 UTC
Wind: from the WNW (290 degrees) at 13 MPH (11 KT):0
Visibility: 10 mile(s):0
Sky conditions: overcast
Temperature: 48.0 F (8.9 C)
Dew Point: 37.8 F (3.2 C)
Relative Humidity: 67%
Pressure (altimeter): 29.9 in. Hg (1012 hPa)
ob: KAMN 180236Z AUTO 29011KT 10SM SCT065 SCT070 OVC085 09/03 A2990 RMK AO2 T00890032
cycle: 2

Station Type Date Time Source
KAMN TAF UTC NOAA

Error!

Example: see airport list